sensor_id;sensor_type;location;lat;lon;timestamp;temperature;humidity
423;DHT22;198;48.752;9.180;2022-11-04T00:01:45;10.80;99.90
423;DHT22;198;48.752;9.180;2022-11-04T00:04:12;10.80;99.90
423;DHT22;198;48.752;9.180;2022-11-04T00:06:39;10.80;99.90
423;DHT22;198;48.752;9.180;2022-11-04T00:09:07;10.70;99.90
423;DHT22;198;48.752;9.180;2022-11-04T00:11:33;10.80;99.90
423;DHT22;198;48.752;9.180;2022-11-04T00:14:18;10.80;99.90
423;DHT22;198;48.752;9.180;2022-11-04T00:16:43;10.70;99.90
423;DHT22;198;48.752;9.180;2022-11-04T00:19:28;10.70;99.90
423;DHT22;198;48.752;9.180;2022-11-04T00:21:54;10.70;99.90
423;DHT22;198;48.752;9.180;2022-11-04T00:24:38;10.70;99.90
423;DHT22;198;48.752;9.180;2022-11-04T00:27:11;10.60;99.90
423;DHT22;198;48.752;9.180;2022-11-04T00:29:56;10.60;99.90
423;DHT22;198;48.752;9.180;2022-11-04T00:32:22;10.60;99.90
423;DHT22;198;48.752;9.180;2022-11-04T00:35:07;10.60;99.90
423;DHT22;198;48.752;9.180;2022-11-04T00:37:37;10.60;99.90
423;DHT22;198;48.752;9.180;2022-11-04T00:40:04;10.50;99.90
423;DHT22;198;48.752;9.180;2022-11-04T00:42:29;10.50;99.90
423;DHT22;198;48.752;9.180;2022-11-04T00:44:55;10.60;99.90
423;DHT22;198;48.752;9.180;2022-11-04T00:47:20;10.60;99.90
423;DHT22;198;48.752;9.180;2022-11-04T00:49:46;10.60;99.90
423;DHT22;198;48.752;9.180;2022-11-04T00:52:11;10.60;99.90
423;DHT22;198;48.752;9.180;2022-11-04T00:54:37;10.50;99.90
423;DHT22;198;48.752;9.180;2022-11-04T00:57:03;10.50;99.90
423;DHT22;198;48.752;9.180;2022-11-04T00:59:28;10.50;99.90
423;DHT22;198;48.752;9.180;2022-11-04T01:01:54;10.50;99.90
423;DHT22;198;48.752;9.180;2022-11-04T01:04:20;10.50;99.90
423;DHT22;198;48.752;9.180;2022-11-04T01:06:45;10.50;99.90
423;DHT22;198;48.752;9.180;2022-11-04T01:09:12;10.50;99.90
423;DHT22;198;48.752;9.180;2022-11-04T01:11:38;10.50;99.90
423;DHT22;198;48.752;9.180;2022-11-04T01:14:04;10.50;99.90
423;DHT22;198;48.752;9.180;2022-11-04T01:16:29;10.50;99.90
423;DHT22;198;48.752;9.180;2022-11-04T01:18:55;10.50;99.90
423;DHT22;198;48.752;9.180;2022-11-04T01:21:20;10.50;99.90
423;DHT22;198;48.752;9.180;2022-11-04T01:23:46;10.50;99.90
423;DHT22;198;48.752;9.180;2022-11-04T01:26:14;10.40;99.90
423;DHT22;198;48.752;9.180;2022-11-04T01:28:40;10.50;99.90
423;DHT22;198;48.752;9.180;2022-11-04T01:31:11;10.40;99.90
423;DHT22;198;48.752;9.180;2022-11-04T01:33:37;10.40;99.90
423;DHT22;198;48.752;9.180;2022-11-04T01:36:04;10.50;99.90
423;DHT22;198;48.752;9.180;2022-11-04T01:38:30;10.50;99.90
423;DHT22;198;48.752;9.180;2022-11-04T01:40:56;10.50;99.90
423;DHT22;198;48.752;9.180;2022-11-04T01:43:22;10.50;99.90
423;DHT22;198;48.752;9.180;2022-11-04T01:45:51;10.50;99.90
423;DHT22;198;48.752;9.180;2022-11-04T01:48:26;10.40;99.90
423;DHT22;198;48.752;9.180;2022-11-04T01:50:52;10.40;99.90
423;DHT22;198;48.752;9.180;2022-11-04T01:53:39;10.40;99.90
423;DHT22;198;48.752;9.180;2022-11-04T01:56:07;10.40;99.90
423;DHT22;198;48.752;9.180;2022-11-04T01:58:38;10.50;99.90
423;DHT22;198;48.752;9.180;2022-11-04T02:01:05;10.50;99.90
423;DHT22;198;48.752;9.180;2022-11-04T02:03:35;10.50;99.90
423;DHT22;198;48.752;9.180;2022-11-04T02:06:03;10.50;99.90
423;DHT22;198;48.752;9.180;2022-11-04T02:08:30;10.40;99.90
423;DHT22;198;48.752;9.180;2022-11-04T02:10:58;10.40;99.90
423;DHT22;198;48.752;9.180;2022-11-04T02:13:25;10.40;99.90
423;DHT22;198;48.752;9.180;2022-11-04T02:35:25;10.20;99.90
423;DHT22;198;48.752;9.180;2022-11-04T02:40:50;10.10;99.90
423;DHT22;198;48.752;9.180;2022-11-04T02:44:10;10.10;99.90
423;DHT22;198;48.752;9.180;2022-11-04T02:46:26;10.10;99.90
423;DHT22;198;48.752;9.180;2022-11-04T02:51:32;10.10;99.90
423;DHT22;198;48.752;9.180;2022-11-04T02:54:14;10.00;99.90
423;DHT22;198;48.752;9.180;2022-11-04T02:56:47;10.00;99.90
423;DHT22;198;48.752;9.180;2022-11-04T02:59:30;10.00;99.90
423;DHT22;198;48.752;9.180;2022-11-04T03:01:57;10.00;99.90
423;DHT22;198;48.752;9.180;2022-11-04T03:04:29;10.00;99.90
423;DHT22;198;48.752;9.180;2022-11-04T03:06:56;10.00;99.90
423;DHT22;198;48.752;9.180;2022-11-04T03:09:24;10.00;99.90
423;DHT22;198;48.752;9.180;2022-11-04T03:12:01;10.00;99.90
423;DHT22;198;48.752;9.180;2022-11-04T03:14:36;10.00;99.90
423;DHT22;198;48.752;9.180;2022-11-04T03:17:05;10.00;99.90
423;DHT22;198;48.752;9.180;2022-11-04T03:22:13;10.10;99.90
423;DHT22;198;48.752;9.180;2022-11-04T03:24:41;10.00;99.90
423;DHT22;198;48.752;9.180;2022-11-04T03:27:19;10.10;99.90
423;DHT22;198;48.752;9.180;2022-11-04T03:32:45;10.00;99.90
423;DHT22;198;48.752;9.180;2022-11-04T03:35:15;10.00;99.90
423;DHT22;198;48.752;9.180;2022-11-04T03:37:42;10.00;99.90
423;DHT22;198;48.752;9.180;2022-11-04T03:40:09;10.00;99.90
423;DHT22;198;48.752;9.180;2022-11-04T03:42:42;10.00;99.90
423;DHT22;198;48.752;9.180;2022-11-04T03:45:09;10.00;99.90
423;DHT22;198;48.752;9.180;2022-11-04T03:47:36;10.00;99.90
423;DHT22;198;48.752;9.180;2022-11-04T03:50:49;10.10;99.90
423;DHT22;198;48.752;9.180;2022-11-04T03:52:57;10.10;99.90
423;DHT22;198;48.752;9.180;2022-11-04T04:04:00;10.20;99.90
423;DHT22;198;48.752;9.180;2022-11-04T04:06:32;10.20;99.90
423;DHT22;198;48.752;9.180;2022-11-04T04:09:25;10.20;99.90
423;DHT22;198;48.752;9.180;2022-11-04T04:12:02;10.20;99.90
423;DHT22;198;48.752;9.180;2022-11-04T04:14:49;10.10;99.90
423;DHT22;198;48.752;9.180;2022-11-04T04:17:38;10.10;99.90
423;DHT22;198;48.752;9.180;2022-11-04T04:20:14;10.10;99.90
423;DHT22;198;48.752;9.180;2022-11-04T04:23:00;10.00;99.90
423;DHT22;198;48.752;9.180;2022-11-04T04:25:27;10.00;99.90
423;DHT22;198;48.752;9.180;2022-11-04T04:28:29;10.00;99.90
423;DHT22;198;48.752;9.180;2022-11-04T04:30:55;9.90;99.90
423;DHT22;198;48.752;9.180;2022-11-04T04:33:21;9.90;99.90
423;DHT22;198;48.752;9.180;2022-11-04T04:35:51;9.80;99.90
423;DHT22;198;48.752;9.180;2022-11-04T04:38:22;9.90;99.90
423;DHT22;198;48.752;9.180;2022-11-04T04:41:16;9.80;99.90
423;DHT22;198;48.752;9.180;2022-11-04T04:44:01;9.80;99.90
423;DHT22;198;48.752;9.180;2022-11-04T04:46:47;9.80;99.90
423;DHT22;198;48.752;9.180;2022-11-04T04:49:14;9.80;99.90
423;DHT22;198;48.752;9.180;2022-11-04T04:51:46;9.70;99.90
423;DHT22;198;48.752;9.180;2022-11-04T04:54:12;9.70;99.90
423;DHT22;198;48.752;9.180;2022-11-04T04:56:38;9.70;99.90
423;DHT22;198;48.752;9.180;2022-11-04T04:59:03;9.70;99.90
423;DHT22;198;48.752;9.180;2022-11-04T05:01:29;9.60;99.90
423;DHT22;198;48.752;9.180;2022-11-04T05:03:54;9.60;99.90
423;DHT22;198;48.752;9.180;2022-11-04T05:06:20;9.70;99.90
423;DHT22;198;48.752;9.180;2022-11-04T05:08:45;9.70;99.90
423;DHT22;198;48.752;9.180;2022-11-04T05:11:11;9.70;99.90
423;DHT22;198;48.752;9.180;2022-11-04T05:13:37;9.70;99.90
423;DHT22;198;48.752;9.180;2022-11-04T05:16:08;9.70;99.90
423;DHT22;198;48.752;9.180;2022-11-04T05:18:34;9.70;99.90
423;DHT22;198;48.752;9.180;2022-11-04T05:21:07;9.70;99.90
423;DHT22;198;48.752;9.180;2022-11-04T05:23:34;9.70;99.90
423;DHT22;198;48.752;9.180;2022-11-04T05:25:59;9.70;99.90
423;DHT22;198;48.752;9.180;2022-11-04T05:28:25;9.70;99.90
423;DHT22;198;48.752;9.180;2022-11-04T05:30:51;9.80;99.90
423;DHT22;198;48.752;9.180;2022-11-04T05:33:16;9.90;99.90
423;DHT22;198;48.752;9.180;2022-11-04T05:35:42;9.90;99.90
423;DHT22;198;48.752;9.180;2022-11-04T05:38:07;9.90;99.90
423;DHT22;198;48.752;9.180;2022-11-04T05:40:33;9.90;99.90
423;DHT22;198;48.752;9.180;2022-11-04T05:42:59;9.80;99.90
423;DHT22;198;48.752;9.180;2022-11-04T05:45:26;9.80;99.90
423;DHT22;198;48.752;9.180;2022-11-04T05:48:02;9.80;99.90
423;DHT22;198;48.752;9.180;2022-11-04T05:50:30;9.70;99.90
423;DHT22;198;48.752;9.180;2022-11-04T05:52:57;9.70;99.90
423;DHT22;198;48.752;9.180;2022-11-04T05:55:23;9.70;99.90
423;DHT22;198;48.752;9.180;2022-11-04T05:57:49;9.70;99.90
423;DHT22;198;48.752;9.180;2022-11-04T06:00:14;9.70;99.90
423;DHT22;198;48.752;9.180;2022-11-04T06:02:40;9.70;99.90
423;DHT22;198;48.752;9.180;2022-11-04T06:05:06;9.70;99.90
423;DHT22;198;48.752;9.180;2022-11-04T06:07:32;9.70;99.90
423;DHT22;198;48.752;9.180;2022-11-04T06:09:58;9.70;99.90
423;DHT22;198;48.752;9.180;2022-11-04T06:12:24;9.60;99.90
423;DHT22;198;48.752;9.180;2022-11-04T06:14:50;9.70;99.90
423;DHT22;198;48.752;9.180;2022-11-04T06:17:17;9.70;99.90
423;DHT22;198;48.752;9.180;2022-11-04T06:19:43;9.70;99.90
423;DHT22;198;48.752;9.180;2022-11-04T06:22:14;9.70;99.90
423;DHT22;198;48.752;9.180;2022-11-04T06:24:39;9.70;99.90
423;DHT22;198;48.752;9.180;2022-11-04T06:27:05;9.70;99.90
423;DHT22;198;48.752;9.180;2022-11-04T06:29:31;9.70;99.90
423;DHT22;198;48.752;9.180;2022-11-04T06:31:56;9.70;99.90
423;DHT22;198;48.752;9.180;2022-11-04T06:34:22;9.60;99.90
423;DHT22;198;48.752;9.180;2022-11-04T06:36:48;9.60;99.90
423;DHT22;198;48.752;9.180;2022-11-04T06:39:14;9.60;99.90
423;DHT22;198;48.752;9.180;2022-11-04T06:41:39;9.60;99.90
423;DHT22;198;48.752;9.180;2022-11-04T06:44:05;9.60;99.90
423;DHT22;198;48.752;9.180;2022-11-04T06:46:38;9.50;99.90
423;DHT22;198;48.752;9.180;2022-11-04T06:49:06;9.50;99.90
423;DHT22;198;48.752;9.180;2022-11-04T06:51:33;9.50;99.90
423;DHT22;198;48.752;9.180;2022-11-04T06:53:59;9.40;99.90
423;DHT22;198;48.752;9.180;2022-11-04T06:56:24;9.50;99.90
423;DHT22;198;48.752;9.180;2022-11-04T06:58:51;9.50;99.90
423;DHT22;198;48.752;9.180;2022-11-04T07:01:18;9.50;99.90
423;DHT22;198;48.752;9.180;2022-11-04T07:03:48;9.50;99.90
423;DHT22;198;48.752;9.180;2022-11-04T07:06:14;9.60;99.90
423;DHT22;198;48.752;9.180;2022-11-04T07:08:40;9.60;99.90
423;DHT22;198;48.752;9.180;2022-11-04T07:11:06;9.60;99.90
423;DHT22;198;48.752;9.180;2022-11-04T07:13:31;9.60;99.90
423;DHT22;198;48.752;9.180;2022-11-04T07:15:57;9.60;99.90
423;DHT22;198;48.752;9.180;2022-11-04T07:18:23;9.60;99.90
423;DHT22;198;48.752;9.180;2022-11-04T07:20:48;9.60;99.90
423;DHT22;198;48.752;9.180;2022-11-04T07:23:14;9.60;99.90
423;DHT22;198;48.752;9.180;2022-11-04T07:25:39;9.60;99.90
423;DHT22;198;48.752;9.180;2022-11-04T07:28:05;9.60;99.90
423;DHT22;198;48.752;9.180;2022-11-04T07:30:31;9.60;99.90
423;DHT22;198;48.752;9.180;2022-11-04T07:32:56;9.60;99.90
423;DHT22;198;48.752;9.180;2022-11-04T07:35:22;9.70;99.90
423;DHT22;198;48.752;9.180;2022-11-04T07:37:48;9.70;99.90
423;DHT22;198;48.752;9.180;2022-11-04T07:40:14;9.70;99.90
423;DHT22;198;48.752;9.180;2022-11-04T07:42:39;9.70;99.90
423;DHT22;198;48.752;9.180;2022-11-04T07:45:05;9.80;99.90
423;DHT22;198;48.752;9.180;2022-11-04T07:47:31;9.80;99.90
423;DHT22;198;48.752;9.180;2022-11-04T07:49:57;9.80;99.90
423;DHT22;198;48.752;9.180;2022-11-04T07:52:23;9.80;99.90
423;DHT22;198;48.752;9.180;2022-11-04T07:54:48;9.90;99.90
423;DHT22;198;48.752;9.180;2022-11-04T07:57:14;9.90;99.90
423;DHT22;198;48.752;9.180;2022-11-04T07:59:40;10.00;99.90
423;DHT22;198;48.752;9.180;2022-11-04T08:02:05;10.00;99.90
423;DHT22;198;48.752;9.180;2022-11-04T08:04:31;10.10;99.90
423;DHT22;198;48.752;9.180;2022-11-04T08:06:57;10.20;99.90
423;DHT22;198;48.752;9.180;2022-11-04T08:09:22;10.30;99.90
423;DHT22;198;48.752;9.180;2022-11-04T08:11:48;10.40;99.90
423;DHT22;198;48.752;9.180;2022-11-04T08:14:14;10.50;99.90
423;DHT22;198;48.752;9.180;2022-11-04T08:16:39;10.60;99.90
423;DHT22;198;48.752;9.180;2022-11-04T08:19:05;10.70;99.90
423;DHT22;198;48.752;9.180;2022-11-04T08:21:32;10.90;99.90
423;DHT22;198;48.752;9.180;2022-11-04T08:23:58;10.90;99.90
423;DHT22;198;48.752;9.180;2022-11-04T08:26:23;11.00;99.90
423;DHT22;198;48.752;9.180;2022-11-04T08:28:50;11.10;99.90
423;DHT22;198;48.752;9.180;2022-11-04T08:31:20;11.30;99.90
423;DHT22;198;48.752;9.180;2022-11-04T08:33:47;11.30;99.90
423;DHT22;198;48.752;9.180;2022-11-04T08:36:34;11.50;99.90
423;DHT22;198;48.752;9.180;2022-11-04T08:39:01;11.60;99.90
423;DHT22;198;48.752;9.180;2022-11-04T08:41:30;11.70;99.90
423;DHT22;198;48.752;9.180;2022-11-04T08:43:56;11.70;99.90
423;DHT22;198;48.752;9.180;2022-11-04T08:46:24;11.70;99.90
423;DHT22;198;48.752;9.180;2022-11-04T08:48:50;11.90;99.90
423;DHT22;198;48.752;9.180;2022-11-04T08:51:19;12.10;99.90
423;DHT22;198;48.752;9.180;2022-11-04T08:53:45;12.30;99.90
423;DHT22;198;48.752;9.180;2022-11-04T08:56:23;12.40;99.90
423;DHT22;198;48.752;9.180;2022-11-04T08:58:50;12.50;99.90
423;DHT22;198;48.752;9.180;2022-11-04T09:01:17;12.40;99.90
423;DHT22;198;48.752;9.180;2022-11-04T09:03:43;12.30;99.90
423;DHT22;198;48.752;9.180;2022-11-04T09:06:11;12.30;99.90
423;DHT22;198;48.752;9.180;2022-11-04T09:08:38;12.30;99.90
423;DHT22;198;48.752;9.180;2022-11-04T09:11:08;12.30;99.90
423;DHT22;198;48.752;9.180;2022-11-04T09:13:35;12.30;99.90
423;DHT22;198;48.752;9.180;2022-11-04T09:16:00;12.30;99.90
423;DHT22;198;48.752;9.180;2022-11-04T09:18:26;12.30;99.90
423;DHT22;198;48.752;9.180;2022-11-04T09:20:51;12.30;99.90
423;DHT22;198;48.752;9.180;2022-11-04T09:23:17;12.20;99.90
423;DHT22;198;48.752;9.180;2022-11-04T09:25:42;12.30;99.90
423;DHT22;198;48.752;9.180;2022-11-04T09:28:08;12.30;99.90
423;DHT22;198;48.752;9.180;2022-11-04T09:30:35;12.40;99.90
423;DHT22;198;48.752;9.180;2022-11-04T09:33:01;12.40;99.90
423;DHT22;198;48.752;9.180;2022-11-04T09:35:26;12.40;99.90
423;DHT22;198;48.752;9.180;2022-11-04T09:37:53;12.50;99.90
423;DHT22;198;48.752;9.180;2022-11-04T09:40:21;12.60;99.90
423;DHT22;198;48.752;9.180;2022-11-04T09:43:21;12.70;99.90
423;DHT22;198;48.752;9.180;2022-11-04T09:45:47;12.90;99.90
423;DHT22;198;48.752;9.180;2022-11-04T09:48:25;12.90;99.90
423;DHT22;198;48.752;9.180;2022-11-04T09:50:56;13.10;99.90
423;DHT22;198;48.752;9.180;2022-11-04T09:53:27;13.30;99.90
423;DHT22;198;48.752;9.180;2022-11-04T09:55:57;13.50;99.90
423;DHT22;198;48.752;9.180;2022-11-04T09:58:24;13.50;99.90
423;DHT22;198;48.752;9.180;2022-11-04T10:01:02;13.60;99.90
423;DHT22;198;48.752;9.180;2022-11-04T10:17:49;15.20;99.90
423;DHT22;198;48.752;9.180;2022-11-04T10:22:50;15.40;96.80
423;DHT22;198;48.752;9.180;2022-11-04T10:25:22;15.50;94.80
423;DHT22;198;48.752;9.180;2022-11-04T10:27:48;15.50;94.10
423;DHT22;198;48.752;9.180;2022-11-04T10:30:18;15.50;93.50
423;DHT22;198;48.752;9.180;2022-11-04T10:32:57;15.50;93.20
423;DHT22;198;48.752;9.180;2022-11-04T10:40:51;15.90;90.70
423;DHT22;198;48.752;9.180;2022-11-04T10:43:33;15.90;91.00
423;DHT22;198;48.752;9.180;2022-11-04T10:48:35;15.90;90.70
423;DHT22;198;48.752;9.180;2022-11-04T10:51:04;16.00;90.60
423;DHT22;198;48.752;9.180;2022-11-04T10:53:31;16.20;89.70
423;DHT22;198;48.752;9.180;2022-11-04T10:56:05;16.20;89.90
423;DHT22;198;48.752;9.180;2022-11-04T10:58:40;15.90;87.00
423;DHT22;198;48.752;9.180;2022-11-04T11:03:49;15.70;88.90
423;DHT22;198;48.752;9.180;2022-11-04T11:06:27;15.60;87.70
423;DHT22;198;48.752;9.180;2022-11-04T11:08:58;15.50;88.70
423;DHT22;198;48.752;9.180;2022-11-04T11:11:36;15.40;88.80
423;DHT22;198;48.752;9.180;2022-11-04T11:14:02;15.20;89.10
423;DHT22;198;48.752;9.180;2022-11-04T11:16:28;15.20;90.00
423;DHT22;198;48.752;9.180;2022-11-04T11:21:54;14.70;89.60
423;DHT22;198;48.752;9.180;2022-11-04T11:24:20;14.60;90.10
423;DHT22;198;48.752;9.180;2022-11-04T11:26:51;14.40;90.30
423;DHT22;198;48.752;9.180;2022-11-04T11:29:26;14.20;90.50
423;DHT22;198;48.752;9.180;2022-11-04T11:31:54;14.10;91.50
423;DHT22;198;48.752;9.180;2022-11-04T11:34:24;14.10;91.30
423;DHT22;198;48.752;9.180;2022-11-04T11:36:52;14.00;91.50
423;DHT22;198;48.752;9.180;2022-11-04T11:39:20;13.90;91.90
423;DHT22;198;48.752;9.180;2022-11-04T11:44:23;13.60;93.40
423;DHT22;198;48.752;9.180;2022-11-04T11:46:59;13.70;93.30
423;DHT22;198;48.752;9.180;2022-11-04T11:49:29;13.90;93.50
423;DHT22;198;48.752;9.180;2022-11-04T11:52:15;14.00;93.20
423;DHT22;198;48.752;9.180;2022-11-04T11:54:43;13.90;93.40
423;DHT22;198;48.752;9.180;2022-11-04T12:00:04;14.30;93.10
423;DHT22;198;48.752;9.180;2022-11-04T12:05:08;14.90;91.50
423;DHT22;198;48.752;9.180;2022-11-04T12:07:37;15.10;91.50
423;DHT22;198;48.752;9.180;2022-11-04T12:10:31;15.30;90.50
423;DHT22;198;48.752;9.180;2022-11-04T12:13:26;15.60;89.40
423;DHT22;198;48.752;9.180;2022-11-04T12:24:36;15.50;85.20
423;DHT22;198;48.752;9.180;2022-11-04T12:30:12;15.30;86.10
423;DHT22;198;48.752;9.180;2022-11-04T12:32:45;15.30;86.00
423;DHT22;198;48.752;9.180;2022-11-04T12:35:39;15.10;86.00
423;DHT22;198;48.752;9.180;2022-11-04T12:46:31;14.80;89.80
423;DHT22;198;48.752;9.180;2022-11-04T12:49:29;14.70;90.40
423;DHT22;198;48.752;9.180;2022-11-04T13:00:12;14.70;91.00
423;DHT22;198;48.752;9.180;2022-11-04T13:05:41;14.90;89.90
423;DHT22;198;48.752;9.180;2022-11-04T13:10:55;15.20;88.40
423;DHT22;198;48.752;9.180;2022-11-04T13:13:31;15.30;88.50
423;DHT22;198;48.752;9.180;2022-11-04T13:16:02;15.40;88.50
423;DHT22;198;48.752;9.180;2022-11-04T13:18:34;15.40;88.90
423;DHT22;198;48.752;9.180;2022-11-04T13:21:07;15.80;90.00
423;DHT22;198;48.752;9.180;2022-11-04T13:24:00;16.00;85.80
423;DHT22;198;48.752;9.180;2022-11-04T13:26:28;16.10;85.00
423;DHT22;198;48.752;9.180;2022-11-04T13:29:06;16.00;84.20
423;DHT22;198;48.752;9.180;2022-11-04T13:34:39;15.80;84.10
423;DHT22;198;48.752;9.180;2022-11-04T13:39:41;15.70;85.70
423;DHT22;198;48.752;9.180;2022-11-04T13:45:04;15.40;84.80
423;DHT22;198;48.752;9.180;2022-11-04T13:47:46;15.10;85.60
423;DHT22;198;48.752;9.180;2022-11-04T13:50:37;14.90;86.70
423;DHT22;198;48.752;9.180;2022-11-04T13:53:05;14.70;87.90
423;DHT22;198;48.752;9.180;2022-11-04T13:55:32;14.40;91.00
423;DHT22;198;48.752;9.180;2022-11-04T13:58:02;13.80;93.40
423;DHT22;198;48.752;9.180;2022-11-04T14:00:32;13.20;96.30
423;DHT22;198;48.752;9.180;2022-11-04T14:03:00;12.80;99.20
423;DHT22;198;48.752;9.180;2022-11-04T14:06:00;12.50;99.90
423;DHT22;198;48.752;9.180;2022-11-04T14:08:27;12.20;99.90
423;DHT22;198;48.752;9.180;2022-11-04T14:18:30;12.10;99.90
423;DHT22;198;48.752;9.180;2022-11-04T14:21:08;12.20;99.90
423;DHT22;198;48.752;9.180;2022-11-04T14:23:39;12.40;99.90
423;DHT22;198;48.752;9.180;2022-11-04T14:26:07;12.50;99.90
423;DHT22;198;48.752;9.180;2022-11-04T14:28:33;12.60;99.90
423;DHT22;198;48.752;9.180;2022-11-04T14:31:02;12.60;99.90
423;DHT22;198;48.752;9.180;2022-11-04T14:33:35;12.60;99.90
423;DHT22;198;48.752;9.180;2022-11-04T14:36:21;12.60;99.90
423;DHT22;198;48.752;9.180;2022-11-04T14:44:29;12.80;99.90
423;DHT22;198;48.752;9.180;2022-11-04T14:47:01;12.80;99.90
423;DHT22;198;48.752;9.180;2022-11-04T14:54:47;12.50;99.90
423;DHT22;198;48.752;9.180;2022-11-04T14:57:19;12.30;99.90
423;DHT22;198;48.752;9.180;2022-11-04T14:59:45;12.30;99.90
423;DHT22;198;48.752;9.180;2022-11-04T15:02:20;12.30;99.90
423;DHT22;198;48.752;9.180;2022-11-04T15:04:55;12.30;99.90
423;DHT22;198;48.752;9.180;2022-11-04T15:07:36;12.40;99.90
423;DHT22;198;48.752;9.180;2022-11-04T15:10:24;12.40;99.90
423;DHT22;198;48.752;9.180;2022-11-04T15:12:51;12.50;99.90
423;DHT22;198;48.752;9.180;2022-11-04T15:18:16;12.60;99.90
423;DHT22;198;48.752;9.180;2022-11-04T15:20:52;12.70;99.90
423;DHT22;198;48.752;9.180;2022-11-04T15:23:29;12.70;99.90
423;DHT22;198;48.752;9.180;2022-11-04T15:25:56;12.60;99.90
423;DHT22;198;48.752;9.180;2022-11-04T15:28:32;12.60;99.90
423;DHT22;198;48.752;9.180;2022-11-04T15:33:39;12.60;99.90
423;DHT22;198;48.752;9.180;2022-11-04T15:36:11;12.50;99.90
423;DHT22;198;48.752;9.180;2022-11-04T15:38:42;12.40;99.90
423;DHT22;198;48.752;9.180;2022-11-04T15:41:08;12.30;99.90
423;DHT22;198;48.752;9.180;2022-11-04T15:43:53;12.20;99.90
423;DHT22;198;48.752;9.180;2022-11-04T15:46:19;12.10;99.90
423;DHT22;198;48.752;9.180;2022-11-04T15:48:59;12.00;99.90
423;DHT22;198;48.752;9.180;2022-11-04T15:51:29;11.90;99.90
423;DHT22;198;48.752;9.180;2022-11-04T15:54:04;11.80;99.90
423;DHT22;198;48.752;9.180;2022-11-04T15:56:34;11.80;99.90
423;DHT22;198;48.752;9.180;2022-11-04T15:59:08;11.70;99.90
423;DHT22;198;48.752;9.180;2022-11-04T16:01:43;11.60;99.90
423;DHT22;198;48.752;9.180;2022-11-04T16:04:10;11.50;99.90
423;DHT22;198;48.752;9.180;2022-11-04T16:06:40;11.40;99.90
423;DHT22;198;48.752;9.180;2022-11-04T16:11:37;11.20;99.90
423;DHT22;198;48.752;9.180;2022-11-04T16:14:23;11.10;99.90
423;DHT22;198;48.752;9.180;2022-11-04T16:16:51;10.90;99.90
423;DHT22;198;48.752;9.180;2022-11-04T16:19:19;10.90;99.90
423;DHT22;198;48.752;9.180;2022-11-04T16:21:46;10.90;99.90
423;DHT22;198;48.752;9.180;2022-11-04T16:24:20;11.00;99.90
423;DHT22;198;48.752;9.180;2022-11-04T16:26:47;11.10;99.90
423;DHT22;198;48.752;9.180;2022-11-04T16:29:22;11.10;99.90
423;DHT22;198;48.752;9.180;2022-11-04T16:34:33;11.10;99.90
423;DHT22;198;48.752;9.180;2022-11-04T16:36:59;11.10;99.90
423;DHT22;198;48.752;9.180;2022-11-04T16:39:24;11.10;99.90
423;DHT22;198;48.752;9.180;2022-11-04T16:41:50;11.20;99.90
423;DHT22;198;48.752;9.180;2022-11-04T16:44:20;11.20;99.90
423;DHT22;198;48.752;9.180;2022-11-04T16:46:46;11.20;99.90
423;DHT22;198;48.752;9.180;2022-11-04T16:49:15;11.20;99.90
423;DHT22;198;48.752;9.180;2022-11-04T16:51:40;11.20;99.90
423;DHT22;198;48.752;9.180;2022-11-04T16:54:06;11.20;99.90
423;DHT22;198;48.752;9.180;2022-11-04T16:56:33;11.20;99.90
423;DHT22;198;48.752;9.180;2022-11-04T16:58:59;11.20;99.90
423;DHT22;198;48.752;9.180;2022-11-04T17:01:24;11.20;99.90
423;DHT22;198;48.752;9.180;2022-11-04T17:03:50;11.20;99.90
423;DHT22;198;48.752;9.180;2022-11-04T17:06:16;11.20;99.90
423;DHT22;198;48.752;9.180;2022-11-04T17:08:42;11.20;99.90
423;DHT22;198;48.752;9.180;2022-11-04T17:11:09;11.20;99.90
423;DHT22;198;48.752;9.180;2022-11-04T17:13:35;11.30;99.90
423;DHT22;198;48.752;9.180;2022-11-04T17:16:01;11.30;99.90
423;DHT22;198;48.752;9.180;2022-11-04T17:18:30;11.30;99.90
423;DHT22;198;48.752;9.180;2022-11-04T17:20:56;11.30;99.90
423;DHT22;198;48.752;9.180;2022-11-04T17:23:22;11.30;99.90
423;DHT22;198;48.752;9.180;2022-11-04T17:25:49;11.20;99.90
423;DHT22;198;48.752;9.180;2022-11-04T17:28:14;11.20;99.90
423;DHT22;198;48.752;9.180;2022-11-04T17:30:41;11.20;99.90
423;DHT22;198;48.752;9.180;2022-11-04T17:33:16;11.10;99.90
423;DHT22;198;48.752;9.180;2022-11-04T17:35:43;11.20;99.90
423;DHT22;198;48.752;9.180;2022-11-04T17:38:10;11.10;99.90
423;DHT22;198;48.752;9.180;2022-11-04T17:40:37;11.10;99.90
423;DHT22;198;48.752;9.180;2022-11-04T17:43:22;11.10;99.90
423;DHT22;198;48.752;9.180;2022-11-04T17:46:06;11.10;99.90
423;DHT22;198;48.752;9.180;2022-11-04T17:48:51;11.10;99.90
423;DHT22;198;48.752;9.180;2022-11-04T17:51:17;11.00;99.90
423;DHT22;198;48.752;9.180;2022-11-04T17:53:42;11.10;99.90
423;DHT22;198;48.752;9.180;2022-11-04T17:56:18;11.00;99.90
423;DHT22;198;48.752;9.180;2022-11-04T17:58:44;11.00;99.90
423;DHT22;198;48.752;9.180;2022-11-04T18:01:12;10.90;99.90
423;DHT22;198;48.752;9.180;2022-11-04T18:03:38;10.90;99.90
423;DHT22;198;48.752;9.180;2022-11-04T18:06:04;10.90;99.90
423;DHT22;198;48.752;9.180;2022-11-04T18:08:30;10.90;99.90
423;DHT22;198;48.752;9.180;2022-11-04T18:10:57;11.00;99.90
423;DHT22;198;48.752;9.180;2022-11-04T18:13:23;11.00;99.90
423;DHT22;198;48.752;9.180;2022-11-04T18:15:49;11.00;99.90
423;DHT22;198;48.752;9.180;2022-11-04T18:18:15;11.00;99.90
423;DHT22;198;48.752;9.180;2022-11-04T18:20:40;11.00;99.90
423;DHT22;198;48.752;9.180;2022-11-04T18:23:06;11.00;99.90
423;DHT22;198;48.752;9.180;2022-11-04T18:25:31;11.00;99.90
423;DHT22;198;48.752;9.180;2022-11-04T18:27:57;11.00;99.90
423;DHT22;198;48.752;9.180;2022-11-04T18:30:22;11.00;99.90
423;DHT22;198;48.752;9.180;2022-11-04T18:32:48;11.00;99.90
423;DHT22;198;48.752;9.180;2022-11-04T18:35:14;10.90;99.90
423;DHT22;198;48.752;9.180;2022-11-04T18:37:39;10.90;99.90
423;DHT22;198;48.752;9.180;2022-11-04T18:40:05;10.90;99.90
423;DHT22;198;48.752;9.180;2022-11-04T18:42:31;10.90;99.90
423;DHT22;198;48.752;9.180;2022-11-04T18:44:57;10.90;99.90
423;DHT22;198;48.752;9.180;2022-11-04T18:47:22;10.90;99.90
423;DHT22;198;48.752;9.180;2022-11-04T18:49:48;10.90;99.90
423;DHT22;198;48.752;9.180;2022-11-04T18:52:14;10.90;99.90
423;DHT22;198;48.752;9.180;2022-11-04T18:54:42;10.80;99.90
423;DHT22;198;48.752;9.180;2022-11-04T18:57:07;10.80;99.90
423;DHT22;198;48.752;9.180;2022-11-04T18:59:34;10.70;99.90
423;DHT22;198;48.752;9.180;2022-11-04T19:02:00;10.70;99.90
423;DHT22;198;48.752;9.180;2022-11-04T19:04:25;10.70;99.90
423;DHT22;198;48.752;9.180;2022-11-04T19:06:51;10.60;99.90
423;DHT22;198;48.752;9.180;2022-11-04T19:09:17;10.60;99.90
423;DHT22;198;48.752;9.180;2022-11-04T19:11:43;10.70;99.90
423;DHT22;198;48.752;9.180;2022-11-04T19:14:11;10.70;99.90
423;DHT22;198;48.752;9.180;2022-11-04T19:16:39;10.70;99.90
423;DHT22;198;48.752;9.180;2022-11-04T19:19:07;10.70;99.90
423;DHT22;198;48.752;9.180;2022-11-04T19:21:33;10.70;99.90
423;DHT22;198;48.752;9.180;2022-11-04T19:23:59;10.70;99.90
423;DHT22;198;48.752;9.180;2022-11-04T19:26:28;10.80;99.90